createdAt,value
2018-11-06T00:01:43.573Z,9.00
2018-11-06T00:04:12.222Z,9.20
2018-11-06T00:06:40.676Z,9.30
2018-11-06T00:09:09.179Z,8.90
2018-11-06T00:11:37.582Z,8.60
2018-11-06T00:14:06.084Z,8.50
2018-11-06T00:16:34.560Z,8.70
2018-11-06T00:19:02.971Z,8.90
2018-11-06T00:21:31.446Z,9.10
2018-11-06T00:23:59.905Z,8.90
2018-11-06T00:26:28.335Z,8.80
2018-11-06T00:28:56.764Z,8.60
2018-11-06T00:31:25.188Z,8.60
2018-11-06T00:33:53.622Z,8.80
2018-11-06T00:36:22.041Z,9.00
2018-11-06T00:38:50.430Z,9.20
2018-11-06T00:41:18.857Z,9.20
2018-11-06T00:43:47.400Z,9.10
2018-11-06T00:46:15.840Z,9.20
2018-11-06T00:48:44.319Z,9.20
2018-11-06T00:51:12.734Z,9.20
2018-11-06T00:53:41.862Z,9.20
2018-11-06T00:56:10.346Z,9.20
2018-11-06T00:58:38.842Z,9.30
2018-11-06T01:01:07.259Z,9.40
2018-11-06T01:04:44.770Z,9.40
2018-11-06T01:07:13.169Z,9.40
2018-11-06T01:09:41.594Z,9.30
2018-11-06T01:12:10.033Z,9.30
2018-11-06T01:14:38.477Z,9.20
2018-11-06T01:17:06.906Z,9.20
2018-11-06T01:19:35.294Z,9.10
2018-11-06T01:22:03.735Z,9.30
2018-11-06T01:24:32.148Z,9.20
2018-11-06T01:27:00.598Z,9.30
2018-11-06T01:29:29.017Z,9.10
2018-11-06T01:31:57.447Z,9.10
2018-11-06T01:34:25.895Z,9.20
2018-11-06T01:36:54.338Z,9.30
2018-11-06T01:39:22.762Z,9.30
2018-11-06T01:41:51.188Z,9.40
2018-11-06T01:44:19.613Z,9.30
2018-11-06T01:46:48.499Z,9.20
2018-11-06T01:49:16.915Z,9.20
2018-11-06T01:51:45.551Z,9.20
2018-11-06T01:54:13.953Z,9.20
2018-11-06T01:56:42.508Z,9.10
2018-11-06T01:59:10.996Z,9.10
2018-11-06T02:01:39.434Z,9.30
2018-11-06T02:04:07.842Z,9.20
2018-11-06T02:06:36.214Z,8.90
2018-11-06T02:09:06.858Z,8.80
2018-11-06T02:11:35.291Z,8.40
2018-11-06T02:14:04.098Z,8.30
2018-11-06T02:16:32.570Z,8.30
2018-11-06T02:19:06.396Z,8.20
2018-11-06T02:21:34.855Z,8.10
2018-11-06T02:24:03.656Z,8.20
2018-11-06T02:26:32.119Z,8.00
2018-11-06T02:29:00.547Z,8.00
2018-11-06T02:31:28.958Z,8.00
2018-11-06T02:33:57.394Z,7.90
2018-11-06T02:36:25.831Z,8.00
2018-11-06T02:38:54.253Z,8.00
2018-11-06T02:41:22.715Z,7.90
2018-11-06T02:43:51.206Z,7.90
2018-11-06T02:46:19.601Z,8.00
2018-11-06T02:48:48.107Z,8.00
2018-11-06T02:51:16.539Z,8.00
2018-11-06T02:53:44.960Z,8.00
2018-11-06T02:56:13.443Z,8.00
2018-11-06T02:58:41.886Z,8.00
2018-11-06T03:01:10.296Z,8.00
2018-11-06T03:03:39.601Z,8.00
2018-11-06T03:06:08.834Z,8.10
2018-11-06T03:08:37.592Z,8.00
2018-11-06T03:11:06.106Z,8.10
2018-11-06T03:13:34.656Z,8.40
2018-11-06T03:16:03.282Z,8.30
2018-11-06T03:18:32.043Z,8.50
2018-11-06T03:21:00.570Z,8.60
2018-11-06T03:23:29.084Z,8.50
2018-11-06T03:25:57.614Z,8.60
2018-11-06T03:28:26.124Z,8.60
2018-11-06T03:30:54.845Z,8.60
2018-11-06T03:33:23.402Z,8.60
2018-11-06T03:35:52.070Z,8.50
2018-11-06T03:38:21.039Z,8.40
2018-11-06T03:40:49.774Z,8.30
2018-11-06T03:46:02.292Z,8.30
2018-11-06T03:48:31.301Z,8.20
2018-11-06T03:51:00.488Z,8.20
2018-11-06T03:53:28.949Z,8.30
2018-11-06T03:55:57.345Z,8.40
2018-11-06T03:58:25.761Z,8.40
2018-11-06T04:00:54.178Z,8.40
2018-11-06T04:03:22.599Z,8.50
2018-11-06T04:05:51.010Z,8.60
2018-11-06T04:08:19.410Z,8.60
2018-11-06T04:10:47.778Z,8.40
2018-11-06T04:13:16.198Z,8.20
2018-11-06T04:15:44.586Z,8.40
2018-11-06T04:18:13.047Z,8.50
2018-11-06T04:20:41.407Z,8.50
2018-11-06T04:23:09.800Z,8.70
2018-11-06T04:25:38.166Z,8.50
2018-11-06T04:28:06.573Z,8.60
2018-11-06T04:30:34.975Z,8.70
2018-11-06T04:33:03.401Z,8.60
2018-11-06T04:35:31.777Z,8.70
2018-11-06T04:38:00.234Z,8.70
2018-11-06T04:40:28.659Z,8.60
2018-11-06T04:42:57.157Z,8.60
2018-11-06T04:45:25.598Z,8.40
2018-11-06T04:47:53.981Z,8.50
2018-11-06T04:50:22.702Z,8.40
2018-11-06T04:52:51.070Z,8.40
2018-11-06T04:55:19.456Z,8.40
2018-11-06T04:57:47.862Z,8.40
2018-11-06T05:00:16.282Z,8.40
2018-11-06T05:02:44.852Z,8.50
2018-11-06T05:05:13.618Z,8.40
2018-11-06T05:07:42.033Z,8.10
2018-11-06T05:10:13.054Z,7.90
2018-11-06T05:12:41.460Z,7.80
2018-11-06T05:15:11.761Z,7.70
2018-11-06T05:17:40.151Z,7.70
2018-11-06T05:20:11.900Z,7.60
2018-11-06T05:22:40.274Z,7.50
2018-11-06T05:25:09.265Z,7.50
2018-11-06T05:27:37.894Z,7.60
2018-11-06T05:30:07.344Z,7.60
2018-11-06T05:32:35.935Z,7.60
2018-11-06T05:35:05.530Z,7.80
2018-11-06T05:37:34.035Z,8.00
2018-11-06T05:40:13.851Z,8.10
2018-11-06T05:42:42.237Z,8.00
2018-11-06T05:45:10.691Z,8.10
2018-11-06T05:47:39.099Z,8.10
2018-11-06T05:50:07.617Z,7.80
2018-11-06T05:52:36.100Z,7.80
2018-11-06T05:55:04.788Z,8.00
2018-11-06T05:57:33.202Z,7.80
2018-11-06T06:00:01.852Z,8.00
2018-11-06T06:02:30.241Z,8.10
2018-11-06T06:04:58.652Z,8.00
2018-11-06T06:07:27.069Z,8.00
2018-11-06T06:09:55.494Z,8.00
2018-11-06T06:12:24.001Z,8.00
2018-11-06T06:14:52.533Z,8.00
2018-11-06T06:17:21.051Z,7.90
2018-11-06T06:19:49.420Z,7.90
2018-11-06T06:22:17.877Z,7.70
2018-11-06T06:24:46.359Z,7.60
2018-11-06T06:27:14.833Z,7.70
2018-11-06T06:29:43.283Z,7.70
2018-11-06T06:32:11.701Z,7.60
2018-11-06T06:34:40.231Z,7.50
2018-11-06T06:37:08.631Z,7.40
2018-11-06T06:39:37.244Z,7.30
2018-11-06T06:42:06.275Z,7.20
2018-11-06T06:44:34.682Z,7.00
2018-11-06T06:47:03.066Z,7.10
2018-11-06T06:49:31.479Z,7.30
2018-11-06T06:51:59.935Z,7.10
2018-11-06T06:54:28.533Z,7.10
2018-11-06T06:56:56.792Z,7.00
2018-11-06T06:59:25.198Z,7.10
2018-11-06T07:01:53.658Z,7.10
2018-11-06T07:04:22.090Z,7.00
2018-11-06T07:06:50.480Z,7.10
2018-11-06T07:09:18.925Z,7.20
2018-11-06T07:11:47.354Z,7.10
2018-11-06T07:14:15.812Z,6.80
2018-11-06T07:16:44.331Z,6.70
2018-11-06T07:19:12.847Z,6.60
2018-11-06T07:21:41.291Z,6.60
2018-11-06T07:24:09.771Z,6.70
2018-11-06T07:26:38.197Z,7.00
2018-11-06T07:29:06.683Z,7.20
2018-11-06T07:31:35.162Z,7.30
2018-11-06T07:34:03.597Z,7.40
2018-11-06T07:36:31.997Z,7.30
2018-11-06T07:39:00.481Z,7.00
2018-11-06T07:41:28.855Z,6.80
2018-11-06T07:43:57.931Z,6.90
2018-11-06T07:46:26.343Z,7.00
2018-11-06T07:48:54.791Z,7.00
2018-11-06T07:51:23.217Z,7.20
2018-11-06T07:53:51.721Z,7.60
2018-11-06T07:56:20.202Z,7.60
2018-11-06T07:58:48.647Z,7.60
2018-11-06T08:01:17.170Z,7.80
2018-11-06T08:03:45.651Z,7.80
2018-11-06T08:06:14.173Z,7.80
2018-11-06T08:08:42.675Z,7.80
2018-11-06T08:11:11.149Z,7.80
2018-11-06T08:13:39.668Z,8.10
2018-11-06T08:16:08.162Z,8.20
2018-11-06T08:18:36.613Z,8.30
2018-11-06T08:21:05.092Z,8.20
2018-11-06T08:23:33.573Z,8.30
2018-11-06T08:26:02.011Z,8.20
2018-11-06T08:28:30.478Z,7.80
2018-11-06T08:30:59.109Z,8.00
2018-11-06T08:33:27.491Z,8.30
2018-11-06T08:35:55.986Z,8.20
2018-11-06T08:38:24.431Z,7.90
2018-11-06T08:40:52.950Z,7.90
2018-11-06T08:43:21.661Z,7.90
2018-11-06T08:45:50.204Z,7.70
2018-11-06T08:48:18.733Z,7.80
2018-11-06T08:50:47.138Z,7.80
2018-11-06T08:53:15.740Z,8.00
2018-11-06T08:55:44.171Z,8.10
2018-11-06T08:58:12.615Z,8.20
2018-11-06T09:00:41.127Z,8.40
2018-11-06T09:03:09.630Z,8.40
2018-11-06T09:05:38.230Z,8.50
2018-11-06T09:08:06.660Z,8.40
2018-11-06T09:10:35.661Z,8.60
2018-11-06T09:13:04.425Z,8.70
2018-11-06T09:15:32.900Z,8.90
2018-11-06T09:18:01.343Z,8.90
2018-11-06T09:20:29.868Z,9.00
2018-11-06T09:22:58.290Z,8.90
2018-11-06T09:25:26.831Z,9.00
2018-11-06T09:27:56.233Z,9.00
2018-11-06T09:30:24.698Z,8.80
2018-11-06T09:32:53.112Z,8.70
2018-11-06T09:35:21.697Z,8.80
2018-11-06T09:37:50.223Z,8.80
2018-11-06T09:40:19.766Z,8.80
2018-11-06T09:42:48.469Z,9.00
2018-11-06T09:45:18.153Z,9.20
2018-11-06T09:47:46.568Z,9.30
2018-11-06T09:50:18.288Z,9.00
2018-11-06T09:52:47.566Z,9.10
2018-11-06T09:55:16.999Z,9.30
2018-11-06T09:57:46.041Z,9.30
2018-11-06T10:00:16.164Z,9.30
2018-11-06T10:02:44.588Z,9.20
2018-11-06T10:05:13.563Z,9.40
2018-11-06T10:07:42.041Z,9.40
2018-11-06T10:10:13.313Z,9.40
2018-11-06T10:12:42.875Z,9.60
2018-11-06T10:15:13.567Z,9.80
2018-11-06T10:17:43.163Z,9.80
2018-11-06T10:20:12.878Z,9.80
2018-11-06T10:22:41.582Z,9.90
2018-11-06T10:25:10.346Z,9.60
2018-11-06T10:27:39.444Z,9.60
2018-11-06T10:30:10.252Z,9.50
2018-11-06T10:32:39.066Z,9.60
2018-11-06T10:35:08.800Z,9.70
2018-11-06T10:37:37.352Z,9.80
2018-11-06T10:40:08.184Z,9.90
2018-11-06T10:42:36.627Z,9.90
2018-11-06T10:45:05.772Z,9.80
2018-11-06T10:47:34.250Z,9.80
2018-11-06T10:50:02.754Z,9.80
2018-11-06T10:52:31.186Z,10.00
2018-11-06T10:54:59.634Z,10.40
2018-11-06T10:57:28.255Z,10.70
2018-11-06T10:59:56.944Z,10.90
2018-11-06T11:02:30.722Z,10.90
2018-11-06T11:04:59.174Z,11.10
2018-11-06T11:07:27.623Z,11.10
2018-11-06T11:09:56.084Z,11.00
2018-11-06T11:12:24.526Z,11.10
2018-11-06T11:14:52.936Z,11.30
2018-11-06T11:17:21.424Z,11.30
2018-11-06T11:19:49.836Z,11.30
2018-11-06T11:22:18.271Z,11.40
2018-11-06T11:24:47.109Z,11.20
2018-11-06T11:27:15.596Z,11.10
2018-11-06T11:29:44.083Z,11.00
2018-11-06T11:32:12.490Z,11.10
2018-11-06T11:34:41.036Z,11.20
2018-11-06T11:37:09.425Z,10.80
2018-11-06T11:39:37.878Z,10.90
2018-11-06T11:42:06.888Z,11.20
2018-11-06T11:44:35.378Z,11.10
2018-11-06T11:47:03.856Z,11.20
2018-11-06T11:49:32.316Z,11.10
2018-11-06T11:52:00.711Z,10.90
2018-11-06T11:54:29.122Z,10.80
2018-11-06T11:56:57.584Z,10.80
2018-11-06T11:59:26.155Z,10.80
2018-11-06T12:01:54.598Z,10.70
2018-11-06T12:04:23.041Z,10.60
2018-11-06T12:06:51.504Z,11.00
2018-11-06T12:09:19.961Z,11.10
2018-11-06T12:11:48.362Z,10.80
2018-11-06T12:14:16.856Z,11.10
2018-11-06T12:16:45.358Z,11.30
2018-11-06T12:19:13.774Z,11.40
2018-11-06T12:21:42.249Z,11.60
2018-11-06T12:24:10.757Z,11.60
2018-11-06T12:26:39.303Z,11.80
2018-11-06T12:29:07.743Z,12.00
2018-11-06T12:31:36.217Z,12.10
2018-11-06T12:34:04.906Z,12.40
2018-11-06T12:36:33.465Z,12.50
2018-11-06T12:39:01.857Z,12.60
2018-11-06T12:41:30.279Z,12.60
2018-11-06T12:43:58.684Z,13.10
2018-11-06T12:46:27.156Z,13.00
2018-11-06T12:48:55.601Z,13.30
2018-11-06T12:51:24.115Z,13.60
2018-11-06T12:53:53.480Z,13.80
2018-11-06T12:56:21.963Z,14.10
2018-11-06T12:58:50.331Z,14.50
2018-11-06T13:01:18.771Z,14.20
2018-11-06T13:03:47.286Z,14.20
2018-11-06T13:06:15.742Z,14.70
2018-11-06T13:08:44.116Z,14.90
2018-11-06T13:11:12.550Z,15.20
2018-11-06T13:13:40.958Z,15.00
2018-11-06T13:16:09.439Z,15.30
2018-11-06T13:18:37.866Z,15.30
2018-11-06T13:21:06.279Z,15.20
2018-11-06T13:23:34.731Z,15.30
2018-11-06T13:26:03.302Z,15.20
2018-11-06T13:28:31.691Z,15.50
2018-11-06T13:31:00.186Z,15.60
2018-11-06T13:33:28.632Z,16.00
2018-11-06T13:35:57.030Z,15.50
2018-11-06T13:38:25.450Z,15.20
2018-11-06T13:40:53.907Z,15.40
2018-11-06T13:43:22.536Z,15.20
2018-11-06T13:45:50.926Z,14.90
2018-11-06T13:48:19.917Z,14.80
2018-11-06T13:50:48.347Z,14.40
2018-11-06T13:53:16.743Z,14.40
2018-11-06T13:55:45.163Z,14.40
2018-11-06T13:58:13.551Z,14.50
2018-11-06T14:00:42.013Z,14.60
2018-11-06T14:03:10.381Z,14.60
2018-11-06T14:05:38.854Z,14.40
2018-11-06T14:08:07.339Z,14.50
2018-11-06T14:10:35.810Z,14.90
2018-11-06T14:13:04.252Z,15.20
2018-11-06T14:15:32.690Z,15.70
2018-11-06T14:18:01.162Z,16.00
2018-11-06T14:20:29.606Z,15.90
2018-11-06T14:22:58.014Z,16.10
2018-11-06T14:25:26.405Z,16.10
2018-11-06T14:27:54.805Z,16.10
2018-11-06T14:30:23.247Z,15.50
2018-11-06T14:32:51.706Z,15.10
2018-11-06T14:35:20.465Z,15.00
2018-11-06T14:37:48.956Z,14.80
2018-11-06T14:40:17.658Z,14.50
2018-11-06T14:42:46.521Z,14.50
2018-11-06T14:45:16.362Z,14.40
2018-11-06T14:47:44.812Z,14.50
2018-11-06T14:50:13.658Z,14.60
2018-11-06T14:52:42.207Z,14.40
2018-11-06T14:55:12.103Z,14.40
2018-11-06T14:57:40.794Z,14.30
2018-11-06T15:00:13.051Z,14.30
2018-11-06T15:02:42.484Z,14.20
2018-11-06T15:05:10.963Z,14.10
2018-11-06T15:07:39.368Z,14.10
2018-11-06T15:10:09.263Z,14.10
2018-11-06T15:12:37.958Z,14.00
2018-11-06T15:15:08.244Z,14.00
2018-11-06T15:17:37.019Z,13.80
2018-11-06T15:20:07.663Z,13.70
2018-11-06T15:22:36.175Z,13.60
2018-11-06T15:25:05.039Z,13.50
2018-11-06T15:27:33.540Z,13.50
2018-11-06T15:30:02.084Z,13.40
2018-11-06T15:32:30.675Z,13.40
2018-11-06T15:34:59.486Z,13.30
2018-11-06T15:37:28.862Z,13.20
2018-11-06T15:39:57.333Z,13.10
2018-11-06T15:42:25.914Z,13.00
2018-11-06T15:44:54.576Z,12.90
2018-11-06T15:47:22.998Z,12.80
2018-11-06T15:49:51.459Z,12.60
2018-11-06T15:52:19.883Z,12.50
2018-11-06T15:54:48.430Z,12.50
2018-11-06T15:57:17.045Z,12.40
2018-11-06T15:59:45.764Z,12.40
2018-11-06T16:02:14.304Z,12.20
2018-11-06T16:04:43.452Z,12.10
2018-11-06T16:07:11.987Z,12.10
2018-11-06T16:09:40.701Z,12.10
2018-11-06T16:12:09.324Z,12.00
2018-11-06T16:14:38.373Z,11.80
2018-11-06T16:17:07.043Z,11.60
2018-11-06T16:19:35.732Z,11.60
2018-11-06T16:22:04.683Z,11.50
2018-11-06T16:24:33.526Z,11.40
2018-11-06T16:27:02.059Z,11.40
2018-11-06T16:29:30.798Z,11.30
2018-11-06T16:31:59.475Z,11.30
2018-11-06T16:37:06.278Z,11.40
2018-11-06T16:39:34.867Z,11.40
2018-11-06T16:42:03.483Z,11.30
2018-11-06T16:44:31.953Z,11.30
2018-11-06T16:47:00.414Z,11.20
2018-11-06T16:49:29.053Z,11.10
2018-11-06T16:51:57.832Z,11.00
2018-11-06T16:54:26.484Z,11.00
2018-11-06T16:56:55.366Z,11.00
2018-11-06T16:59:23.903Z,11.00
2018-11-06T17:04:29.545Z,10.90
2018-11-06T17:06:58.242Z,11.00
2018-11-06T17:09:26.792Z,11.00
2018-11-06T17:11:55.426Z,11.00
2018-11-06T17:14:23.894Z,10.90
2018-11-06T17:16:52.509Z,11.00
2018-11-06T17:19:21.061Z,10.90
2018-11-06T17:21:49.563Z,10.80
2018-11-06T17:24:18.228Z,10.90
2018-11-06T17:26:46.759Z,10.80
2018-11-06T17:29:15.256Z,10.80
2018-11-06T17:31:44.247Z,10.80
2018-11-06T17:34:13.168Z,10.70
2018-11-06T17:36:41.803Z,10.70
2018-11-06T17:39:12.699Z,10.80
2018-11-06T17:41:41.942Z,10.80
2018-11-06T17:44:10.823Z,10.90
2018-11-06T17:46:39.553Z,10.80
2018-11-06T17:49:09.125Z,10.80
2018-11-06T17:51:38.439Z,10.80
2018-11-06T17:54:07.447Z,10.80
2018-11-06T17:56:36.529Z,10.70
2018-11-06T17:59:05.852Z,10.70
2018-11-06T18:01:34.539Z,10.50
2018-11-06T18:04:03.333Z,10.60
2018-11-06T18:06:31.710Z,10.60
2018-11-06T18:09:00.268Z,10.60
2018-11-06T18:11:28.840Z,10.60
2018-11-06T18:13:57.282Z,10.60
2018-11-06T18:16:25.903Z,10.50
2018-11-06T18:18:55.178Z,10.40
2018-11-06T18:21:23.731Z,10.50
2018-11-06T18:23:52.328Z,10.60
2018-11-06T18:26:20.745Z,10.60
2018-11-06T18:28:49.234Z,10.50
2018-11-06T18:31:17.942Z,10.30
2018-11-06T18:33:46.733Z,10.30
2018-11-06T18:36:15.175Z,10.20
2018-11-06T18:38:43.921Z,10.40
2018-11-06T18:41:12.538Z,10.40
2018-11-06T18:43:41.176Z,10.30
2018-11-06T18:46:09.792Z,10.20
2018-11-06T18:48:38.547Z,10.20
2018-11-06T18:51:07.017Z,10.10
2018-11-06T18:53:36.173Z,10.00
2018-11-06T18:56:04.942Z,10.00
2018-11-06T18:58:33.384Z,10.10
2018-11-06T19:01:01.848Z,10.10
2018-11-06T19:03:30.316Z,10.00
2018-11-06T19:05:58.766Z,10.00
2018-11-06T19:08:27.378Z,10.10
2018-11-06T19:10:55.892Z,10.10
2018-11-06T19:13:24.448Z,10.00
2018-11-06T19:15:52.816Z,10.00
2018-11-06T19:18:21.265Z,10.00
2018-11-06T19:20:49.694Z,10.00
2018-11-06T19:23:18.095Z,9.90
2018-11-06T19:25:46.477Z,9.90
2018-11-06T19:28:15.213Z,9.90
2018-11-06T19:30:43.599Z,9.80
2018-11-06T19:33:12.122Z,9.80
2018-11-06T19:35:40.515Z,9.80
2018-11-06T19:38:09.092Z,9.80
2018-11-06T19:40:37.565Z,9.80
2018-11-06T19:43:06.070Z,9.80
2018-11-06T19:45:34.435Z,9.90
2018-11-06T19:48:02.843Z,9.90
2018-11-06T19:50:31.326Z,9.90
2018-11-06T19:53:00.499Z,9.90
2018-11-06T19:55:29.115Z,9.80
2018-11-06T19:57:58.472Z,9.80
2018-11-06T20:00:27.000Z,9.90
2018-11-06T20:02:55.416Z,9.90
2018-11-06T20:05:23.886Z,9.90
2018-11-06T20:07:52.791Z,9.80
2018-11-06T20:10:22.583Z,9.80
2018-11-06T20:12:52.150Z,9.80
2018-11-06T20:15:20.640Z,9.70
2018-11-06T20:17:49.187Z,9.70
2018-11-06T20:20:23.918Z,9.80
2018-11-06T20:22:52.481Z,9.70
2018-11-06T20:25:21.151Z,9.70
2018-11-06T20:27:49.563Z,9.70
2018-11-06T20:30:20.497Z,9.70
2018-11-06T20:32:48.918Z,9.70
2018-11-06T20:35:17.712Z,9.70
2018-11-06T20:37:46.221Z,9.60
2018-11-06T20:40:16.468Z,9.60
2018-11-06T20:42:45.376Z,9.60
2018-11-06T20:45:14.872Z,9.60
2018-11-06T20:47:44.214Z,9.60
2018-11-06T20:50:14.346Z,9.60
2018-11-06T20:52:43.191Z,9.60
2018-11-06T20:55:12.716Z,9.60
2018-11-06T20:57:41.247Z,9.60
2018-11-06T21:00:15.404Z,9.60
2018-11-06T21:02:43.865Z,9.60
2018-11-06T21:05:12.878Z,9.60
2018-11-06T21:07:41.230Z,9.60
2018-11-06T21:10:09.771Z,10.70
2018-11-06T21:12:38.171Z,9.50
2018-11-06T21:15:08.330Z,9.50
2018-11-06T21:17:37.395Z,9.50
2018-11-06T21:20:08.619Z,9.50
2018-11-06T21:22:37.340Z,9.50
2018-11-06T21:25:07.500Z,9.50
2018-11-06T21:27:36.170Z,9.50
2018-11-06T21:30:06.292Z,9.40
2018-11-06T21:32:34.869Z,9.40
2018-11-06T21:35:03.539Z,9.40
2018-11-06T21:37:32.349Z,9.40
2018-11-06T21:40:01.177Z,9.40
2018-11-06T21:42:29.656Z,9.40
2018-11-06T21:44:58.095Z,9.40
2018-11-06T21:47:26.579Z,9.40
2018-11-06T21:49:55.052Z,9.40
2018-11-06T21:52:23.841Z,9.40
2018-11-06T21:54:52.229Z,9.50
2018-11-06T21:57:20.707Z,9.50
2018-11-06T21:59:49.103Z,9.40
2018-11-06T22:02:17.492Z,9.40
2018-11-06T22:04:45.921Z,9.50
2018-11-06T22:07:14.371Z,9.50
2018-11-06T22:09:42.744Z,9.40
2018-11-06T22:12:11.275Z,9.40
2018-11-06T22:14:39.674Z,9.40
2018-11-06T22:17:08.117Z,9.30
2018-11-06T22:19:36.512Z,9.40
2018-11-06T22:22:05.568Z,9.30
2018-11-06T22:24:33.962Z,9.30
2018-11-06T22:27:02.422Z,9.30
2018-11-06T22:29:31.067Z,9.30
2018-11-06T22:31:59.524Z,9.30
2018-11-06T22:34:28.044Z,9.40
2018-11-06T22:36:56.538Z,9.30
2018-11-06T22:39:25.019Z,9.30
2018-11-06T22:41:53.481Z,9.30
2018-11-06T22:44:21.883Z,9.20
2018-11-06T22:46:50.341Z,9.20
2018-11-06T22:49:18.755Z,9.20
2018-11-06T22:51:47.403Z,9.20
2018-11-06T22:54:15.818Z,9.10
2018-11-06T22:56:44.252Z,9.10
2018-11-06T22:59:12.663Z,9.10
2018-11-06T23:01:41.097Z,9.10
2018-11-06T23:04:09.495Z,9.10
2018-11-06T23:06:37.889Z,9.10
2018-11-06T23:09:08.732Z,9.20
2018-11-06T23:11:37.266Z,9.10
2018-11-06T23:14:06.133Z,9.20
2018-11-06T23:16:34.564Z,9.20
2018-11-06T23:19:02.970Z,9.10
2018-11-06T23:21:32.037Z,9.20
2018-11-06T23:24:00.426Z,9.10
2018-11-06T23:26:28.812Z,9.10
2018-11-06T23:28:57.227Z,9.10
2018-11-06T23:31:25.679Z,9.10
2018-11-06T23:33:54.246Z,9.00
2018-11-06T23:36:22.810Z,9.00
2018-11-06T23:38:51.363Z,9.00
2018-11-06T23:41:19.747Z,9.10
2018-11-06T23:43:48.235Z,9.10
2018-11-06T23:46:16.841Z,9.10
2018-11-06T23:48:45.354Z,9.20
2018-11-06T23:51:13.727Z,9.10
2018-11-06T23:53:42.104Z,9.10
2018-11-06T23:56:10.546Z,9.10
2018-11-06T23:58:39.069Z,9.10
